Time;durP1;ratioP1;P1;durP2;ratioP2;P2;SDS_P1;SDS_P2;PMS_P1;PMS_P2;Temp;Humidity;BMP_temperature;BMP_pressure;BME280_temperature;BME280_humidity;BME280_pressure;Samples;Min_cycle;Max_cycle;Signal;HPM_P1;HPM_P2
2023/12/26 00:00:06;;;;;;;5.30;2.70;;;;;;;4.53;72.43;98227.73;105519;1256;68736;-75
2023/12/26 00:02:38;;;;;;;6.30;2.10;;;;;;;4.56;72.26;98233.91;105640;1262;71577;-76
2023/12/26 00:05:06;;;;;;;10.10;2.90;;;;;;;4.49;71.59;98237.77;105595;1256;60582;-77
2023/12/26 00:07:34;;;;;;;7.30;2.50;;;;;;;4.44;72.39;98242.92;105601;1256;60471;-75
2023/12/26 00:10:02;;;;;;;7.20;2.30;;;;;;;4.46;72.88;98248.31;105629;1257;73901;-74
2023/12/26 00:12:30;;;;;;;6.80;2.50;;;;;;;4.51;72.60;98247.36;105768;1261;70198;-77
2023/12/26 00:14:57;;;;;;;10.70;3.20;;;;;;;4.49;72.89;98252.20;105578;1259;72625;-79
2023/12/26 00:17:25;;;;;;;6.60;2.00;;;;;;;4.47;72.82;98255.75;105572;1256;60518;-76
2023/12/26 00:19:53;;;;;;;10.50;2.60;;;;;;;4.51;72.55;98255.09;105647;1259;60459;-78
2023/12/26 00:22:20;;;;;;;8.50;2.60;;;;;;;4.51;72.70;98263.90;105703;1256;74262;-79
2023/12/26 00:24:49;;;;;;;4.70;2.00;;;;;;;4.47;72.33;98262.39;105668;1257;69964;-75
2023/12/26 00:27:17;;;;;;;6.50;2.30;;;;;;;4.50;72.39;98258.08;105672;1258;72683;-78
2023/12/26 00:29:44;;;;;;;6.70;2.00;;;;;;;4.43;72.13;98259.52;105692;1262;60506;-79
2023/12/26 00:32:12;;;;;;;5.00;2.20;;;;;;;4.40;72.73;98261.89;106702;1256;60364;-76
2023/12/26 00:34:40;;;;;;;6.90;2.60;;;;;;;4.45;72.28;98268.56;108732;1256;72615;-74
2023/12/26 00:37:09;;;;;;;6.00;2.10;;;;;;;4.42;72.77;98270.48;107123;1262;68762;-79
2023/12/26 00:39:36;;;;;;;6.20;1.90;;;;;;;4.34;72.76;98273.63;105691;1262;72821;-78
2023/12/26 00:42:04;;;;;;;7.00;1.60;;;;;;;4.34;72.62;98273.83;105938;1261;60430;-77
2023/12/26 00:44:32;;;;;;;6.00;2.10;;;;;;;4.38;72.89;98274.39;105642;1258;60395;-77
2023/12/26 00:46:59;;;;;;;5.50;1.80;;;;;;;4.34;72.59;98277.14;105585;1264;74412;-77
2023/12/26 00:49:27;;;;;;;4.10;2.00;;;;;;;4.24;72.67;98279.02;105495;1257;70337;-80
2023/12/26 00:51:54;;;;;;;9.30;2.30;;;;;;;4.16;72.19;98282.92;105446;1262;72793;-78
2023/12/26 00:54:22;;;;;;;4.90;2.20;;;;;;;4.13;71.87;98287.42;105500;1257;62960;-81
2023/12/26 00:56:49;;;;;;;7.20;2.80;;;;;;;4.21;72.16;98296.36;105574;1257;60476;-81
2023/12/26 00:59:18;;;;;;;6.50;2.40;;;;;;;4.23;72.14;98307.07;105496;1257;75518;-81
2023/12/26 01:01:45;;;;;;;6.10;1.90;;;;;;;4.16;71.42;98304.50;105531;1256;69929;-78
2023/12/26 01:04:13;;;;;;;7.20;2.50;;;;;;;4.09;71.76;98305.90;105645;1261;71616;-77
2023/12/26 01:06:41;;;;;;;8.90;2.50;;;;;;;4.05;71.88;98305.08;105587;1262;60533;-76
2023/12/26 01:09:09;;;;;;;7.40;2.90;;;;;;;4.11;71.95;98315.11;105682;1262;60381;-77
2023/12/26 01:11:36;;;;;;;9.40;2.80;;;;;;;4.15;72.10;98307.16;105675;1256;73911;-76
2023/12/26 01:14:04;;;;;;;4.20;1.90;;;;;;;4.10;71.88;98310.38;105527;1262;69388;-80
2023/12/26 01:16:32;;;;;;;6.40;2.10;;;;;;;4.03;71.07;98312.85;105995;1259;72754;-80
2023/12/26 01:19:00;;;;;;;7.70;3.20;;;;;;;3.98;70.97;98320.52;106110;1256;60323;-78
2023/12/26 01:21:28;;;;;;;6.10;1.70;;;;;;;4.07;70.71;98329.27;106553;1257;60663;-75
2023/12/26 01:23:57;;;;;;;5.30;2.00;;;;;;;4.05;70.94;98327.60;106484;1259;75916;-77
2023/12/26 01:26:25;;;;;;;3.90;1.40;;;;;;;4.03;70.99;98329.65;107963;1256;69956;-77
2023/12/26 01:28:53;;;;;;;6.60;1.90;;;;;;;4.08;71.21;98329.91;108629;1257;71525;-78
2023/12/26 01:31:20;;;;;;;9.50;2.20;;;;;;;4.07;71.35;98341.35;106770;1259;60533;-78
2023/12/26 01:33:48;;;;;;;6.10;1.90;;;;;;;4.00;71.68;98343.10;105967;1256;60524;-76
2023/12/26 01:36:16;;;;;;;6.30;1.90;;;;;;;3.95;71.97;98340.80;106020;1261;73889;-78
2023/12/26 01:38:43;;;;;;;6.70;2.20;;;;;;;4.00;70.50;98344.31;106014;1259;69256;-80
2023/12/26 01:41:11;;;;;;;7.20;2.00;;;;;;;4.01;70.96;98344.39;105414;1259;72124;-77
2023/12/26 01:43:38;;;;;;;6.80;2.50;;;;;;;3.94;71.30;98343.88;105465;1259;60572;-76
2023/12/26 01:46:06;;;;;;;6.00;2.40;;;;;;;3.93;71.30;98338.36;105479;1259;60365;-79
2023/12/26 01:48:33;;;;;;;8.30;2.40;;;;;;;3.99;71.44;98341.76;105410;1258;72624;-77
2023/12/26 01:51:02;;;;;;;6.50;2.20;;;;;;;3.96;71.40;98344.25;105537;1259;70743;-77
2023/12/26 01:53:29;;;;;;;7.30;1.90;;;;;;;3.87;71.39;98348.77;105707;1258;71453;-81
2023/12/26 01:55:57;;;;;;;6.00;2.40;;;;;;;3.83;71.64;98350.09;106029;1263;60582;-77
2023/12/26 01:58:25;;;;;;;5.20;1.90;;;;;;;3.89;71.83;98347.93;105830;1259;60464;-76
2023/12/26 02:00:52;;;;;;;9.30;2.90;;;;;;;3.84;71.33;98359.61;105507;1261;72694;-79
2023/12/26 02:03:20;;;;;;;4.90;1.50;;;;;;;3.79;71.22;98355.69;105522;1263;69043;-79
2023/12/26 02:05:47;;;;;;;7.40;1.80;;;;;;;3.79;70.99;98356.53;105598;1263;72671;-76
2023/12/26 02:08:15;;;;;;;4.60;1.80;;;;;;;3.84;71.21;98366.14;105474;1260;60511;-79
2023/12/26 02:10:45;;;;;;;8.80;2.00;;;;;;;3.79;71.34;98364.73;105535;1259;60333;-76
2023/12/26 02:13:13;;;;;;;6.60;2.10;;;;;;;3.72;70.55;98372.54;105546;1259;73992;-77
2023/12/26 02:15:41;;;;;;;6.20;2.10;;;;;;;3.70;70.77;98372.42;105658;1257;70418;-78
2023/12/26 02:18:09;;;;;;;8.20;2.00;;;;;;;3.64;70.99;98372.54;105517;1260;72673;-74
2023/12/26 02:20:38;;;;;;;4.10;1.80;;;;;;;3.61;71.27;98367.66;108280;1259;60991;-75
2023/12/26 02:23:05;;;;;;;6.10;2.00;;;;;;;3.68;71.55;98370.58;108182;1258;60446;-75
2023/12/26 02:25:33;;;;;;;8.70;1.90;;;;;;;3.67;71.69;98375.23;105700;1259;72648;-76
2023/12/26 02:28:01;;;;;;;6.90;2.40;;;;;;;3.60;71.60;98378.08;105875;1259;70337;-76
2023/12/26 02:30:29;;;;;;;8.90;2.10;;;;;;;3.53;71.60;98385.21;105500;1261;72637;-78
2023/12/26 02:32:57;;;;;;;7.10;1.90;;;;;;;3.56;71.66;98402.83;105534;1259;60553;-78
2023/12/26 02:35:27;;;;;;;5.40;1.60;;;;;;;3.62;71.54;98413.75;105672;1256;60497;-76
2023/12/26 02:37:54;;;;;;;8.50;2.20;;;;;;;3.59;71.53;98412.79;105621;1260;72783;-78
2023/12/26 02:40:22;;;;;;;7.00;2.10;;;;;;;3.53;71.26;98412.73;105630;1263;70455;-76
2023/12/26 02:42:49;;;;;;;6.90;2.00;;;;;;;3.51;71.53;98415.50;105641;1257;71505;-77
2023/12/26 02:45:17;;;;;;;6.10;2.00;;;;;;;3.58;71.11;98425.70;105792;1257;60451;-76
2023/12/26 02:47:44;;;;;;;8.70;2.40;;;;;;;3.58;71.14;98431.09;105813;1256;60506;-75
2023/12/26 02:50:12;;;;;;;8.60;2.50;;;;;;;3.52;70.77;98433.98;105701;1259;73986;-74
2023/12/26 02:52:42;;;;;;;7.40;2.00;;;;;;;3.48;70.89;98435.46;105632;1262;68929;-75
2023/12/26 02:55:11;;;;;;;7.40;2.10;;;;;;;3.47;71.23;98439.92;105726;1260;71700;-77
2023/12/26 02:57:39;;;;;;;6.10;1.90;;;;;;;3.55;70.96;98440.54;105474;1260;60323;-77
2023/12/26 03:00:07;;;;;;;9.30;1.90;;;;;;;3.53;71.46;98436.49;105552;1257;61111;-77
2023/12/26 03:02:35;;;;;;;8.70;2.10;;;;;;;3.45;71.57;98440.11;105508;1256;72618;-76
2023/12/26 03:05:03;;;;;;;7.30;1.80;;;;;;;3.42;71.42;98434.67;105635;1262;69807;-75
2023/12/26 03:07:31;;;;;;;7.30;2.10;;;;;;;3.49;71.61;98435.51;105528;1260;71285;-75
2023/12/26 03:10:03;;;;;;;6.10;1.90;;;;;;;3.49;71.32;98443.06;105614;1256;60503;-75
2023/12/26 03:12:31;;;;;;;7.60;1.80;;;;;;;3.45;71.31;98445.79;106020;1262;60527;-75
2023/12/26 03:14:58;;;;;;;7.50;2.10;;;;;;;3.41;71.65;98454.52;108158;1256;72674;-73
2023/12/26 03:17:26;;;;;;;9.30;2.50;;;;;;;3.48;71.77;98453.52;107741;1256;68765;-75
2023/12/26 03:19:54;;;;;;;9.30;2.00;;;;;;;3.51;71.66;98458.73;105723;1256;73581;-76
2023/12/26 03:22:22;;;;;;;8.10;2.10;;;;;;;3.49;71.69;98466.56;106238;1256;60983;-76
2023/12/26 03:24:49;;;;;;;10.80;2.20;;;;;;;3.43;71.53;98470.61;107679;1256;60308;-76
2023/12/26 03:27:17;;;;;;;7.50;2.70;;;;;;;3.44;71.79;98477.52;107813;1256;74687;-73
2023/12/26 03:29:44;;;;;;;6.40;1.60;;;;;;;3.52;71.85;98485.13;106963;1262;69019;-75
2023/12/26 03:32:13;;;;;;;8.40;2.50;;;;;;;3.50;71.56;98490.55;106139;1262;71729;-74
2023/12/26 03:34:40;;;;;;;5.30;1.90;;;;;;;3.44;71.54;98491.23;105666;1263;60537;-75
2023/12/26 03:37:08;;;;;;;5.60;1.90;;;;;;;3.41;71.61;98494.42;105811;1263;59161;-75
2023/12/26 03:39:37;;;;;;;6.10;2.30;;;;;;;3.48;71.91;98488.97;105738;1257;73069;-76
2023/12/26 03:42:04;;;;;;;9.10;2.40;;;;;;;3.48;72.19;98492.13;105691;1263;69392;-77
2023/12/26 03:44:35;;;;;;;9.60;2.30;;;;;;;3.44;72.08;98498.71;105654;1257;73740;-75
2023/12/26 03:47:03;;;;;;;8.00;1.80;;;;;;;3.45;72.29;98494.42;105736;1257;60427;-77
2023/12/26 03:49:32;;;;;;;9.20;2.30;;;;;;;3.44;71.98;98504.46;105891;1262;60787;-72
2023/12/26 03:52:00;;;;;;;6.90;1.80;;;;;;;3.41;71.83;98506.17;106028;1258;72588;-74
2023/12/26 03:54:29;;;;;;;9.80;2.00;;;;;;;3.32;71.85;98503.49;105615;1262;71693;-74
2023/12/26 03:56:56;;;;;;;9.60;2.50;;;;;;;3.30;71.75;98508.84;105587;1260;71092;-74
2023/12/26 03:59:24;;;;;;;4.90;2.00;;;;;;;3.38;71.83;98516.66;105706;1262;60476;-76
2023/12/26 04:01:52;;;;;;;11.70;3.80;;;;;;;3.33;71.36;98512.33;105734;1256;61217;-78
2023/12/26 04:04:20;;;;;;;10.10;3.20;;;;;;;3.28;71.89;98523.70;105743;1257;72417;-76
2023/12/26 04:06:48;;;;;;;10.30;2.70;;;;;;;3.22;71.75;98525.23;106711;1257;68746;-75
2023/12/26 04:09:18;;;;;;;7.00;2.40;;;;;;;3.19;71.65;98528.97;106994;1259;71482;-75
2023/12/26 04:11:46;;;;;;;8.70;2.20;;;;;;;3.28;71.95;98534.20;107029;1259;60365;-75
2023/12/26 04:14:14;;;;;;;10.00;2.50;;;;;;;3.32;71.95;98534.52;108023;1262;60039;-77
2023/12/26 04:16:41;;;;;;;10.10;2.90;;;;;;;3.27;71.68;98537.97;108067;1261;72577;-76
2023/12/26 04:19:10;;;;;;;9.30;3.40;;;;;;;3.23;71.68;98538.71;107845;1257;70434;-77
2023/12/26 04:21:38;;;;;;;7.20;2.20;;;;;;;3.24;71.74;98541.42;107698;1257;71630;-78
2023/12/26 04:24:05;;;;;;;9.00;2.40;;;;;;;3.37;71.66;98538.80;105824;1259;60553;-79
2023/12/26 04:26:35;;;;;;;6.00;1.90;;;;;;;3.35;71.89;98536.48;105594;1262;60449;-76
2023/12/26 04:29:03;;;;;;;9.00;2.40;;;;;;;3.30;71.95;98537.56;106099;1257;72816;-78
2023/12/26 04:31:31;;;;;;;7.50;1.90;;;;;;;3.23;71.90;98539.99;105731;1257;69010;-79
2023/12/26 04:33:59;;;;;;;8.60;2.00;;;;;;;3.21;71.96;98543.00;105962;1260;72738;-76
2023/12/26 04:36:26;;;;;;;9.60;2.30;;;;;;;3.27;72.20;98539.05;105903;1259;60438;-77
2023/12/26 04:38:54;;;;;;;9.80;3.00;;;;;;;3.25;72.39;98536.46;106267;1259;60371;-77
2023/12/26 04:41:22;;;;;;;10.00;3.30;;;;;;;3.18;71.85;98541.16;105888;1257;72240;-75
2023/12/26 04:43:50;;;;;;;9.20;2.70;;;;;;;3.11;72.03;98542.15;105975;1263;72348;-78
2023/12/26 04:46:19;;;;;;;14.00;3.60;;;;;;;3.07;72.07;98544.90;105728;1260;72866;-78
2023/12/26 04:48:47;;;;;;;7.20;2.60;;;;;;;3.13;72.29;98550.50;105575;1264;60559;-78
2023/12/26 04:51:16;;;;;;;5.20;2.20;;;;;;;3.14;72.22;98563.02;105566;1261;60522;-78
2023/12/26 04:53:45;;;;;;;8.70;2.30;;;;;;;3.09;72.19;98564.93;105481;1265;73853;-78
2023/12/26 04:56:19;;;;;;;5.90;1.80;;;;;;;3.06;72.26;98564.84;105624;1256;70344;-77
2023/12/26 04:58:48;;;;;;;6.50;2.20;;;;;;;3.14;72.49;98562.33;105540;1263;73707;-76
2023/12/26 05:01:16;;;;;;;6.80;1.80;;;;;;;3.13;72.20;98566.64;107699;1256;60319;-76
2023/12/26 05:03:44;;;;;;;8.90;2.40;;;;;;;3.09;72.37;98568.50;108418;1259;59048;-76
2023/12/26 05:06:13;;;;;;;6.80;2.40;;;;;;;3.11;72.34;98572.43;106333;1257;72410;-77
2023/12/26 05:08:41;;;;;;;5.70;2.60;;;;;;;3.20;72.28;98576.29;105478;1256;70311;-76
2023/12/26 05:11:08;;;;;;;13.70;2.70;;;;;;;3.19;71.85;98582.58;105378;1265;71986;-78
2023/12/26 05:13:36;;;;;;;7.60;2.30;;;;;;;3.13;71.93;98586.45;105677;1259;60598;-79
2023/12/26 05:16:04;;;;;;;7.00;2.10;;;;;;;3.08;71.76;98591.23;105597;1262;60487;-76
2023/12/26 05:18:31;;;;;;;5.80;2.20;;;;;;;3.10;71.78;98594.16;105477;1256;73807;-76
2023/12/26 05:21:00;;;;;;;7.40;2.50;;;;;;;3.13;71.79;98596.06;105543;1262;69688;-76
2023/12/26 05:23:28;;;;;;;6.30;2.10;;;;;;;3.07;71.40;98601.55;105604;1259;71559;-77
2023/12/26 05:25:58;;;;;;;10.00;2.60;;;;;;;3.00;71.50;98602.95;105459;1262;60455;-75
2023/12/26 05:28:38;;;;;;;8.00;4.00;;;;;;;3.02;71.31;98606.72;105484;1262;60438;-78
2023/12/26 05:31:05;;;;;;;10.40;3.40;;;;;;;3.08;71.08;98610.67;105528;1257;72853;-77
2023/12/26 05:33:33;;;;;;;9.80;3.30;;;;;;;3.02;71.02;98610.19;105606;1265;70157;-76
2023/12/26 05:36:04;;;;;;;8.70;3.20;;;;;;;2.96;71.24;98607.86;105661;1259;73785;-75
2023/12/26 05:38:33;;;;;;;9.40;2.70;;;;;;;2.90;71.13;98615.41;105812;1263;60443;-78
2023/12/26 05:41:05;;;;;;;6.40;2.80;;;;;;;2.93;71.40;98622.45;105572;1256;148061;-77
2023/12/26 05:45:01;;;;;;;8.60;2.80;;;;;;;3.07;71.67;98625.71;103059;1293;600522;-81
2023/12/26 05:47:29;;;;;;;7.80;2.90;;;;;;;2.99;71.63;98623.84;105010;1267;59345;-78
2023/12/26 05:49:58;;;;;;;7.30;2.50;;;;;;;2.93;71.91;98624.39;104969;1267;60008;-78
2023/12/26 05:52:27;;;;;;;8.80;2.70;;;;;;;2.91;72.18;98629.31;105128;1268;72388;-78
2023/12/26 05:54:55;;;;;;;11.70;2.80;;;;;;;2.96;71.96;98635.45;105856;1263;70178;-79
2023/12/26 05:57:23;;;;;;;13.40;3.50;;;;;;;3.00;72.45;98635.80;105719;1268;72748;-80
2023/12/26 05:59:51;;;;;;;11.80;3.00;;;;;;;2.96;72.56;98636.02;105529;1262;59550;-79
2023/12/26 06:02:19;;;;;;;7.60;3.00;;;;;;;2.91;72.60;98641.02;106791;1259;60034;-85
2023/12/26 06:04:47;;;;;;;10.20;3.00;;;;;;;2.89;72.55;98644.65;106452;1257;72990;-86
2023/12/26 06:07:14;;;;;;;7.80;2.70;;;;;;;2.96;72.51;98648.56;106502;1256;69221;-85
2023/12/26 06:09:43;;;;;;;9.00;3.00;;;;;;;2.97;72.57;98658.31;106691;1260;71316;-84
2023/12/26 06:12:12;;;;;;;7.00;2.70;;;;;;;2.93;72.99;98665.10;106265;1259;59784;-85
2023/12/26 06:14:42;;;;;;;9.30;2.40;;;;;;;2.91;73.33;98663.59;107687;1258;59560;-86
2023/12/26 06:17:10;;;;;;;11.90;4.20;;;;;;;2.98;73.24;98676.36;106810;1256;72094;-82
2023/12/26 06:19:40;;;;;;;9.10;2.80;;;;;;;3.02;73.54;98679.00;108054;1255;68886;-83
2023/12/26 06:22:08;;;;;;;9.00;2.70;;;;;;;2.98;73.81;98682.66;106373;1259;71646;-86
2023/12/26 06:24:48;;;;;;;9.00;2.90;;;;;;;2.94;74.18;98687.56;106541;1257;59712;-85
2023/12/26 06:27:18;;;;;;;8.00;3.20;;;;;;;2.96;74.49;98696.18;106911;1256;59545;-83
2023/12/26 06:30:02;;;;;;;9.30;3.20;;;;;;;3.05;74.48;98701.60;106649;1263;73922;-85
2023/12/26 06:32:50;;;;;;;9.60;3.00;;;;;;;3.10;74.56;98710.44;106833;1263;71914;-86
2023/12/26 06:35:22;;;;;;;11.50;3.00;;;;;;;3.07;75.01;98717.38;106650;1259;72520;-82
2023/12/26 06:37:50;;;;;;;11.70;2.80;;;;;;;3.05;75.16;98722.40;107102;1256;59642;-83
2023/12/26 06:40:17;;;;;;;10.70;3.30;;;;;;;3.15;75.38;98726.69;106424;1257;59560;-83
2023/12/26 06:42:45;;;;;;;9.30;3.50;;;;;;;3.22;75.65;98729.70;106285;1264;73122;-84
2023/12/26 06:45:13;;;;;;;7.10;2.80;;;;;;;3.21;75.80;98732.86;107250;1256;69055;-81
2023/12/26 06:47:42;;;;;;;13.20;3.70;;;;;;;3.14;75.98;98736.04;107384;1257;71551;-82
2023/12/26 06:50:11;;;;;;;6.80;2.90;;;;;;;3.13;76.25;98737.79;108913;1255;58027;-84
2023/12/26 06:52:38;;;;;;;11.20;3.60;;;;;;;3.19;76.14;98734.61;108754;1263;58733;-83
2023/12/26 06:55:06;;;;;;;11.60;3.50;;;;;;;3.28;76.18;98731.66;106591;1264;71477;-83
2023/12/26 06:57:34;;;;;;;10.50;3.60;;;;;;;3.26;75.88;98736.03;106286;1259;72198;-84
2023/12/26 07:00:03;;;;;;;12.70;4.30;;;;;;;3.20;76.20;98737.60;106773;1255;72189;-83
2023/12/26 07:02:32;;;;;;;10.90;3.20;;;;;;;3.24;76.11;98733.95;106376;1256;61131;-83
2023/12/26 07:05:00;;;;;;;13.00;3.60;;;;;;;3.31;75.72;98737.98;106341;1254;59741;-81
2023/12/26 07:07:28;;;;;;;13.90;3.70;;;;;;;3.31;75.63;98738.98;106243;1255;74416;-83
2023/12/26 07:09:56;;;;;;;10.80;3.40;;;;;;;3.28;75.80;98738.42;106933;1253;73176;-84
2023/12/26 07:12:23;;;;;;;6.50;2.70;;;;;;;3.30;75.74;98744.27;107062;1254;72462;-84
2023/12/26 07:14:51;;;;;;;9.70;3.40;;;;;;;3.40;75.98;98748.89;105977;1258;59580;-83
2023/12/26 07:17:19;;;;;;;11.20;3.80;;;;;;;3.42;75.45;98753.19;105876;1255;59549;-82
2023/12/26 07:19:46;;;;;;;10.90;4.00;;;;;;;3.40;75.44;98759.53;106188;1261;73160;-80
2023/12/26 07:22:14;;;;;;;11.80;3.70;;;;;;;3.38;75.69;98759.70;105803;1256;70233;-81
2023/12/26 07:24:42;;;;;;;7.50;3.30;;;;;;;3.40;75.67;98760.44;105962;1256;72780;-83
2023/12/26 07:27:09;;;;;;;9.30;4.30;;;;;;;3.51;75.71;98770.75;106243;1255;59765;-84
2023/12/26 07:29:37;;;;;;;12.30;4.20;;;;;;;3.55;75.45;98769.65;106376;1255;59833;-84
2023/12/26 07:32:06;;;;;;;11.40;4.10;;;;;;;3.52;75.48;98770.33;106977;1253;72235;-84
2023/12/26 07:34:33;;;;;;;12.70;3.60;;;;;;;3.49;75.40;98779.16;107674;1256;69047;-84
2023/12/26 07:37:01;;;;;;;7.90;3.30;;;;;;;3.51;75.33;98779.02;106292;1254;71490;-83
2023/12/26 07:39:29;;;;;;;10.60;3.70;;;;;;;3.59;74.81;98790.09;106726;1256;59710;-84
2023/12/26 07:42:00;;;;;;;11.90;4.80;;;;;;;3.60;74.89;98795.95;107383;1259;59669;-83
2023/12/26 07:44:31;;;;;;;10.10;3.50;;;;;;;3.55;74.98;98791.41;109304;1254;71796;-85
2023/12/26 07:46:59;;;;;;;9.10;3.40;;;;;;;3.54;74.87;98800.16;109021;1254;68713;-82
2023/12/26 07:49:26;;;;;;;10.80;3.90;;;;;;;3.62;74.87;98808.23;107975;1254;71544;-82
2023/12/26 07:51:55;;;;;;;11.50;3.60;;;;;;;3.75;74.85;98817.84;106505;1255;60012;-77
2023/12/26 07:54:22;;;;;;;10.40;4.10;;;;;;;3.79;75.05;98821.14;105778;1261;60067;-78
2023/12/26 07:56:50;;;;;;;9.00;3.30;;;;;;;3.78;74.33;98826.17;105770;1258;73108;-76
2023/12/26 07:59:17;;;;;;;11.00;4.00;;;;;;;3.77;74.49;98826.27;105924;1253;72534;-78
2023/12/26 08:01:45;;;;;;;10.00;3.60;;;;;;;3.84;74.04;98827.30;105616;1259;71190;-79
2023/12/26 08:04:13;;;;;;;11.50;3.30;;;;;;;3.93;74.26;98833.95;105790;1258;59592;-79
2023/12/26 08:06:41;;;;;;;11.30;4.00;;;;;;;3.92;73.77;98833.16;105794;1253;60337;-79
2023/12/26 08:09:09;;;;;;;11.30;4.00;;;;;;;3.92;74.22;98831.81;106266;1255;71001;-77
2023/12/26 08:11:37;;;;;;;11.30;4.70;;;;;;;3.98;73.47;98830.48;106294;1256;69043;-80
2023/12/26 08:14:05;;;;;;;10.20;3.70;;;;;;;4.09;73.07;98827.84;106228;1259;71562;-78
2023/12/26 08:16:38;;;;;;;9.00;3.40;;;;;;;4.12;72.87;98834.60;105985;1254;60049;-79
2023/12/26 08:19:05;;;;;;;10.90;3.80;;;;;;;4.12;72.78;98840.02;105778;1256;60007;-79
2023/12/26 08:21:33;;;;;;;7.80;3.40;;;;;;;4.13;72.89;98844.16;105820;1258;71881;-78
2023/12/26 08:24:00;;;;;;;6.60;3.30;;;;;;;4.22;72.54;98846.39;105801;1261;69022;-78
2023/12/26 08:26:31;;;;;;;11.20;3.70;;;;;;;4.37;72.54;98843.21;106236;1255;72768;-78
2023/12/26 08:28:59;;;;;;;13.20;4.90;;;;;;;4.44;72.45;98856.91;106639;1256;59726;-79
2023/12/26 08:31:26;;;;;;;9.20;3.20;;;;;;;4.49;72.30;98846.96;105896;1255;59551;-77
2023/12/26 08:33:54;;;;;;;10.30;3.90;;;;;;;4.55;72.24;98849.03;106400;1255;71973;-75
2023/12/26 08:36:23;;;;;;;7.20;3.40;;;;;;;4.67;71.69;98851.13;107459;1256;70010;-76
2023/12/26 08:38:50;;;;;;;9.30;3.60;;;;;;;4.85;71.16;98839.55;108161;1257;71925;-76
2023/12/26 08:41:21;;;;;;;9.10;3.20;;;;;;;4.94;70.51;98838.77;107632;1260;59722;-77
2023/12/26 08:43:50;;;;;;;10.00;3.40;;;;;;;5.03;69.79;98830.40;106616;1258;59602;-78
2023/12/26 08:46:17;;;;;;;9.60;3.10;;;;;;;5.10;69.55;98832.98;106105;1261;72038;-78
2023/12/26 08:48:45;;;;;;;14.20;3.80;;;;;;;5.14;69.50;98827.09;106124;1255;70578;-80
2023/12/26 08:51:12;;;;;;;8.00;2.80;;;;;;;5.16;69.71;98830.42;106196;1260;71992;-80
2023/12/26 08:53:40;;;;;;;7.10;3.20;;;;;;;5.25;69.15;98835.11;106215;1258;59588;-80
2023/12/26 08:56:08;;;;;;;11.10;3.20;;;;;;;5.37;68.71;98834.35;106172;1256;59748;-80
2023/12/26 08:58:35;;;;;;;8.00;3.40;;;;;;;5.38;68.57;98830.65;106296;1255;73048;-81
2023/12/26 09:01:03;;;;;;;8.20;3.10;;;;;;;5.38;68.00;98835.58;106661;1254;69214;-81
2023/12/26 09:03:31;;;;;;;10.80;3.80;;;;;;;5.40;68.09;98833.65;105992;1256;71363;-79
2023/12/26 09:05:59;;;;;;;7.70;3.50;;;;;;;5.51;68.05;98832.89;106063;1256;60884;-80
2023/12/26 09:08:27;;;;;;;7.90;3.00;;;;;;;5.84;67.36;98840.32;106205;1258;59556;-79
2023/12/26 09:10:54;;;;;;;10.40;3.00;;;;;;;6.13;66.51;98831.69;106077;1256;71958;-78
2023/12/26 09:13:26;;;;;;;14.70;5.60;;;;;;;6.33;65.48;98824.63;106188;1256;68733;-82
2023/12/26 09:15:54;;;;;;;18.40;8.70;;;;;;;6.55;64.95;98827.96;106194;1259;72451;-82
2023/12/26 09:18:22;;;;;;;14.40;5.60;;;;;;;6.76;64.38;98831.90;106119;1257;59726;-80
2023/12/26 09:20:50;;;;;;;18.00;8.80;;;;;;;6.82;63.99;98829.21;107523;1256;60011;-77
2023/12/26 09:23:19;;;;;;;12.00;3.90;;;;;;;6.81;64.19;98828.40;107343;1255;73976;-79
2023/12/26 09:25:48;;;;;;;9.30;3.50;;;;;;;6.79;63.86;98831.66;107502;1254;71395;-80
2023/12/26 09:28:16;;;;;;;9.50;3.30;;;;;;;6.74;64.27;98827.58;106880;1256;74098;-80
2023/12/26 09:30:44;;;;;;;9.70;3.20;;;;;;;6.65;63.95;98830.78;107499;1254;62488;-77
2023/12/26 09:33:12;;;;;;;9.70;3.60;;;;;;;6.58;63.46;98831.88;107978;1254;60377;-79
2023/12/26 09:35:40;;;;;;;11.40;3.50;;;;;;;6.51;63.49;98841.09;107627;1253;71796;-74
2023/12/26 09:38:08;;;;;;;12.70;4.30;;;;;;;6.46;63.58;98850.55;105920;1258;70177;-73
2023/12/26 09:40:39;;;;;;;7.80;3.20;;;;;;;6.40;63.30;98859.59;105805;1258;71284;-75
2023/12/26 09:43:07;;;;;;;9.80;3.40;;;;;;;6.35;62.90;98860.95;105697;1256;59747;-74
2023/12/26 09:45:34;;;;;;;13.20;3.90;;;;;;;6.31;63.28;98866.44;105770;1253;59544;-74
2023/12/26 09:48:02;;;;;;;7.70;3.10;;;;;;;6.25;62.52;98862.45;105637;1254;70860;-74
2023/12/26 09:50:30;;;;;;;10.60;3.20;;;;;;;6.22;63.12;98860.35;105683;1263;68257;-74
2023/12/26 09:52:58;;;;;;;11.60;3.30;;;;;;;6.23;63.43;98853.34;105672;1258;72896;-74
2023/12/26 09:55:29;;;;;;;13.40;3.90;;;;;;;6.24;63.18;98854.27;105681;1256;60516;-74
2023/12/26 09:57:57;;;;;;;10.70;3.40;;;;;;;6.34;63.12;98859.09;105739;1258;61970;-74
2023/12/26 10:00:28;;;;;;;6.00;3.10;;;;;;;6.61;62.51;98857.02;105714;1258;73802;-72
2023/12/26 10:02:55;;;;;;;9.30;4.20;;;;;;;7.06;61.06;98863.83;105674;1259;72553;-73
2023/12/26 10:05:24;;;;;;;8.70;3.60;;;;;;;7.44;59.40;98872.01;105700;1256;74835;-74
2023/12/26 10:07:52;;;;;;;6.30;2.90;;;;;;;7.95;59.32;98865.61;105496;1260;60899;-74
2023/12/26 10:10:20;;;;;;;13.80;4.80;;;;;;;8.48;58.36;98863.79;105682;1253;60526;-73
2023/12/26 10:12:48;;;;;;;11.50;3.80;;;;;;;8.85;57.45;98861.27;105892;1258;73922;-74
2023/12/26 10:15:16;;;;;;;8.00;3.80;;;;;;;9.34;56.21;98859.47;105805;1255;70763;-74
2023/12/26 10:17:44;;;;;;;13.70;4.30;;;;;;;9.57;54.63;98865.32;105703;1257;71760;-75
2023/12/26 10:20:15;;;;;;;7.10;2.80;;;;;;;9.67;54.31;98871.41;105731;1259;60474;-74
2023/12/26 10:22:43;;;;;;;11.90;4.30;;;;;;;9.83;52.89;98876.73;105655;1259;60450;-73
2023/12/26 10:25:11;;;;;;;7.20;4.00;;;;;;;10.13;53.23;98873.79;106516;1253;72614;-71
2023/12/26 10:27:39;;;;;;;7.40;3.30;;;;;;;10.53;52.04;98868.32;106552;1254;69466;-71
2023/12/26 10:30:07;;;;;;;8.70;3.60;;;;;;;10.56;51.83;98863.85;107207;1258;71874;-75
2023/12/26 10:32:35;;;;;;;5.40;2.60;;;;;;;10.25;51.66;98858.65;105870;1258;60423;-74
2023/12/26 10:35:15;;;;;;;6.80;2.70;;;;;;;9.81;52.00;98862.13;106015;1258;60396;-75
2023/12/26 10:37:42;;;;;;;5.70;3.00;;;;;;;9.59;52.96;98861.71;105797;1260;76100;-75
2023/12/26 10:40:11;;;;;;;4.90;2.80;;;;;;;9.99;52.62;98859.69;105770;1259;68909;-74
2023/12/26 10:42:41;;;;;;;8.90;3.30;;;;;;;10.77;51.25;98847.98;105954;1256;70959;-73
2023/12/26 10:45:10;;;;;;;10.00;4.20;;;;;;;11.66;50.79;98842.54;105859;1257;60512;-74
2023/12/26 10:47:42;;;;;;;6.60;4.00;;;;;;;12.44;48.46;98837.55;105824;1255;60345;-74
2023/12/26 10:50:11;;;;;;;9.10;4.70;;;;;;;12.86;47.46;98840.39;106029;1258;73861;-74
2023/12/26 10:52:40;;;;;;;7.50;4.20;;;;;;;12.73;47.62;98829.59;105698;1261;69688;-73
2023/12/26 10:55:08;;;;;;;9.30;4.00;;;;;;;12.21;47.84;98832.13;105993;1254;71521;-81
2023/12/26 10:57:37;;;;;;;8.30;3.80;;;;;;;11.56;49.36;98822.88;106579;1259;62447;-80
2023/12/26 11:00:05;;;;;;;7.80;3.70;;;;;;;10.96;50.34;98824.36;106587;1261;61171;-80
2023/12/26 11:02:32;;;;;;;8.80;4.40;;;;;;;10.36;51.64;98814.95;106490;1255;73156;-80
2023/12/26 11:05:00;;;;;;;14.50;6.50;;;;;;;9.89;53.02;98820.27;106365;1259;72407;-77
2023/12/26 11:07:28;;;;;;;10.50;6.10;;;;;;;9.41;53.91;98820.96;106204;1256;71492;-81
2023/12/26 11:09:57;;;;;;;11.00;5.80;;;;;;;8.92;54.93;98819.34;105926;1265;60427;-80
2023/12/26 11:12:25;;;;;;;10.00;4.40;;;;;;;8.49;56.36;98833.70;106152;1259;60515;-81
2023/12/26 11:14:53;;;;;;;8.00;4.00;;;;;;;8.11;57.51;98824.95;106983;1253;74647;-81
2023/12/26 11:17:21;;;;;;;10.40;4.90;;;;;;;7.82;58.74;98828.48;106642;1259;69457;-78
2023/12/26 11:19:49;;;;;;;12.10;4.90;;;;;;;7.59;59.86;98830.40;107805;1257;75763;-81
2023/12/26 11:22:16;;;;;;;13.50;5.00;;;;;;;7.42;60.65;98835.64;108413;1258;60415;-82
2023/12/26 11:24:44;;;;;;;10.10;4.50;;;;;;;7.31;61.19;98819.96;106378;1259;60423;-80
2023/12/26 11:27:12;;;;;;;9.00;4.60;;;;;;;7.21;61.84;98829.45;106467;1259;75275;-80
2023/12/26 11:29:40;;;;;;;9.80;4.60;;;;;;;7.15;62.42;98821.08;106254;1254;70367;-79
2023/12/26 11:32:09;;;;;;;15.30;5.30;;;;;;;7.08;63.15;98818.20;106064;1255;71061;-82
2023/12/26 11:34:36;;;;;;;21.00;7.00;;;;;;;7.06;63.51;98821.27;106166;1254;62950;-81
2023/12/26 11:37:04;;;;;;;10.70;5.50;;;;;;;7.02;64.15;98817.84;106157;1258;61197;-81